Time;durP1;ratioP1;P1;durP2;ratioP2;P2;SDS_P1;SDS_P2;PMS_P1;PMS_P2;Temp;Humidity;BMP_temperature;BMP_pressure;BME280_temperature;BME280_humidity;BME280_pressure;Samples;Min_cycle;Max_cycle;Signal;HPM_P1;HPM_P2
2022/04/27 00:02:17;;;;;;;29.13;16.13;;;;;;;6.20;60.90;101052.19;5093277;28;20129;-74
2022/04/27 00:04:42;;;;;;;32.15;16.63;;;;;;;6.26;60.56;101054.84;5097219;28;20111;-73
2022/04/27 00:07:09;;;;;;;35.65;17.52;;;;;;;6.17;60.47;101047.81;5094546;28;20402;-72
2022/04/27 00:09:35;;;;;;;30.70;16.38;;;;;;;5.91;61.15;101050.22;5100010;28;20089;-73
2022/04/27 00:12:01;;;;;;;40.20;20.80;;;;;;;5.90;61.41;101051.06;5093557;28;20111;-72
2022/04/27 00:14:31;;;;;;;37.72;18.05;;;;;;;5.80;61.89;101064.91;5095896;28;20024;-72
2022/04/27 00:16:57;;;;;;;40.42;18.83;;;;;;;5.80;61.72;101052.72;5094311;28;20035;-72
2022/04/27 00:19:24;;;;;;;35.58;17.20;;;;;;;5.89;61.65;101059.75;5095887;28;20055;-72
2022/04/27 00:21:50;;;;;;;33.30;17.58;;;;;;;5.82;61.98;101056.19;5095618;28;20032;-72
2022/04/27 00:24:15;;;;;;;37.00;18.50;;;;;;;6.00;61.46;101060.75;5094207;28;20536;-73
2022/04/27 00:26:41;;;;;;;32.33;17.25;;;;;;;5.96;61.30;101064.19;5093947;28;20427;-73
2022/04/27 00:29:07;;;;;;;34.22;16.67;;;;;;;6.07;61.31;101059.06;5076982;28;20044;-70
2022/04/27 00:31:33;;;;;;;35.22;17.10;;;;;;;6.30;60.52;101061.81;5094136;28;20403;-70
2022/04/27 00:34:00;;;;;;;31.55;16.23;;;;;;;6.05;61.05;101061.66;5094978;28;20056;-72
2022/04/27 00:36:26;;;;;;;31.05;16.05;;;;;;;6.25;60.60;101063.53;5087890;28;20454;-71
2022/04/27 00:38:52;;;;;;;36.38;18.70;;;;;;;6.12;60.76;101071.28;5094958;28;20463;-71
2022/04/27 00:41:18;;;;;;;33.30;17.10;;;;;;;6.01;60.96;101072.91;5095127;28;20040;-73
2022/04/27 00:43:45;;;;;;;35.45;17.77;;;;;;;5.80;61.58;101076.19;5094623;28;20478;-71
2022/04/27 00:46:11;;;;;;;29.23;16.77;;;;;;;6.03;61.13;101081.66;5093297;28;20040;-70
2022/04/27 00:48:41;;;;;;;32.53;18.55;;;;;;;6.01;60.87;101070.31;5093011;28;20046;-71
2022/04/27 00:51:10;;;;;;;26.65;14.45;;;;;;;5.85;61.43;101078.84;5094751;28;20586;-72
2022/04/27 00:53:37;;;;;;;27.05;14.60;;;;;;;5.71;61.96;101075.25;5096017;28;20041;-72
2022/04/27 00:56:03;;;;;;;27.02;14.90;;;;;;;5.61;62.39;101080.34;5096018;28;20118;-72
2022/04/27 00:58:28;;;;;;;26.10;14.32;;;;;;;5.59;62.38;101082.09;5076491;28;20201;-72
2022/04/27 01:00:54;;;;;;;23.33;13.52;;;;;;;5.59;62.68;101089.03;5099364;28;20058;-72
2022/04/27 01:03:20;;;;;;;23.80;13.63;;;;;;;5.66;62.36;101089.13;5103967;28;20052;-72
2022/04/27 01:05:47;;;;;;;21.80;12.68;;;;;;;5.81;61.99;101097.94;5098732;28;20100;-71
2022/04/27 01:08:18;;;;;;;26.77;12.80;;;;;;;5.84;61.79;101092.75;5095295;28;20068;-72
2022/04/27 01:10:46;;;;;;;19.10;12.18;;;;;;;5.89;61.49;101099.75;5099044;28;20028;-73
2022/04/27 01:13:12;;;;;;;26.95;14.35;;;;;;;5.99;61.15;101097.28;5097956;28;20043;-72
2022/04/27 01:15:39;;;;;;;33.67;19.27;;;;;;;6.15;60.81;101105.22;5096039;28;20032;-72
2022/04/27 01:18:06;;;;;;;33.08;19.35;;;;;;;6.21;60.70;101100.91;5094361;28;20056;-71
2022/04/27 01:20:46;;;;;;;31.63;17.23;;;;;;;6.38;60.16;101101.91;5093741;28;20040;-72
2022/04/27 01:23:13;;;;;;;37.28;21.67;;;;;;;6.39;60.30;101108.88;5094301;28;20119;-73
2022/04/27 01:25:55;;;;;;;48.55;23.92;;;;;;;6.66;59.57;101105.56;5093432;28;20036;-74
2022/04/27 01:28:25;;;;;;;44.50;24.08;;;;;;;6.46;59.86;101104.56;5093898;28;20040;-75
2022/04/27 01:30:57;;;;;;;46.05;24.33;;;;;;;6.39;60.13;101098.44;5092966;28;20110;-74
2022/04/27 01:33:22;;;;;;;45.92;24.00;;;;;;;6.35;60.30;101091.47;5094158;28;20039;-75
2022/04/27 01:35:48;;;;;;;43.63;23.17;;;;;;;6.49;60.10;101088.91;5092826;28;20028;-73
2022/04/27 01:38:16;;;;;;;36.22;20.05;;;;;;;6.31;60.69;101100.13;5092662;28;20060;-75
2022/04/27 01:40:42;;;;;;;24.02;14.77;;;;;;;6.50;60.18;101090.66;5093279;28;20107;-75
2022/04/27 01:43:07;;;;;;;22.17;12.90;;;;;;;6.30;60.65;101099.22;5091576;28;20179;-75
2022/04/27 01:45:33;;;;;;;22.50;12.02;;;;;;;6.17;61.02;101094.78;5094783;28;20044;-76
2022/04/27 01:47:58;;;;;;;24.10;12.63;;;;;;;6.22;60.98;101103.53;5092183;28;20432;-75
2022/04/27 01:50:24;;;;;;;21.75;12.15;;;;;;;6.02;61.44;101102.50;5092610;28;20036;-75
2022/04/27 01:55:33;;;;;;;23.08;12.80;;;;;;;5.72;62.45;101108.28;5076613;28;20070;-73
2022/04/27 01:57:59;;;;;;;31.48;15.15;;;;;;;5.64;62.76;101116.03;5095679;28;20035;-75
2022/04/27 02:00:25;;;;;;;42.17;22.38;;;;;;;5.60;62.82;101112.50;5092716;28;20448;-74
2022/04/27 02:02:50;;;;;;;37.50;19.33;;;;;;;5.61;62.77;101119.47;5074195;28;20079;-74
2022/04/27 02:05:15;;;;;;;35.78;21.15;;;;;;;5.57;63.09;101109.00;5075389;28;20032;-75
2022/04/27 02:07:43;;;;;;;27.88;15.57;;;;;;;5.55;63.00;101114.19;5094650;28;20437;-75
2022/04/27 02:10:09;;;;;;;29.92;18.05;;;;;;;5.49;63.07;101110.66;5092196;28;20131;-75
2022/04/27 02:12:35;;;;;;;30.80;18.30;;;;;;;5.45;63.34;101120.16;5092637;28;20038;-73
2022/04/27 02:15:02;;;;;;;27.17;15.63;;;;;;;5.45;63.35;101120.16;5095211;28;20110;-71
2022/04/27 02:17:27;;;;;;;32.08;17.23;;;;;;;5.50;63.28;101126.28;5092214;28;20058;-72
2022/04/27 02:19:52;;;;;;;30.95;17.35;;;;;;;5.44;63.85;101129.72;5091955;28;20467;-71
2022/04/27 02:22:18;;;;;;;29.08;16.88;;;;;;;5.34;64.12;101126.97;5092259;28;20052;-71
2022/04/27 02:24:43;;;;;;;26.63;15.52;;;;;;;5.21;64.62;101125.09;5090836;28;20036;-71
2022/04/27 02:27:09;;;;;;;29.10;15.65;;;;;;;5.35;64.09;101129.63;5091841;28;20027;-70
2022/04/27 02:29:34;;;;;;;24.10;13.50;;;;;;;5.37;64.01;101122.69;5092998;28;20032;-72
2022/04/27 02:32:01;;;;;;;25.25;13.93;;;;;;;5.41;63.76;101110.56;5094244;28;20097;-70
2022/04/27 02:34:26;;;;;;;24.20;13.65;;;;;;;5.41;63.81;101118.38;5091142;28;20032;-72
2022/04/27 02:36:51;;;;;;;27.42;14.55;;;;;;;5.49;63.53;101124.56;5090560;28;20111;-71
2022/04/27 02:39:17;;;;;;;24.40;13.10;;;;;;;5.49;63.49;101114.13;5092230;28;20047;-72
2022/04/27 02:41:42;;;;;;;25.08;12.93;;;;;;;5.49;63.58;101110.66;5091873;28;20070;-72
2022/04/27 02:44:08;;;;;;;24.48;12.98;;;;;;;5.44;63.78;101118.41;5091887;28;20067;-73
2022/04/27 02:46:33;;;;;;;21.63;11.77;;;;;;;5.38;64.07;101123.56;5090632;28;20044;-71
2022/04/27 02:51:48;;;;;;;26.27;13.18;;;;;;;5.33;64.11;101125.25;5087933;28;20043;-71
2022/04/27 02:54:15;;;;;;;22.70;13.48;;;;;;;5.23;64.19;101123.41;5091054;28;20032;-74
2022/04/27 02:56:40;;;;;;;31.98;18.23;;;;;;;5.18;64.41;101137.22;5093054;28;20036;-74
2022/04/27 02:59:06;;;;;;;30.45;16.75;;;;;;;5.17;64.42;101134.59;5091723;28;20082;-71
2022/04/27 03:01:31;;;;;;;29.77;17.60;;;;;;;5.10;64.60;101133.63;5091308;28;20479;-72
2022/04/27 03:03:57;;;;;;;37.95;20.83;;;;;;;5.08;64.83;101137.97;5089917;28;20093;-72
2022/04/27 03:06:22;;;;;;;39.67;23.20;;;;;;;5.05;64.95;101135.31;5092996;28;20024;-72
2022/04/27 03:08:47;;;;;;;35.65;20.55;;;;;;;5.07;65.03;101145.78;5092798;28;20035;-71
2022/04/27 03:11:13;;;;;;;34.47;19.83;;;;;;;5.02;65.29;101140.47;5090047;28;20468;-73
2022/04/27 03:13:38;;;;;;;28.90;16.60;;;;;;;5.03;65.33;101146.59;5092871;28;20067;-74
2022/04/27 03:16:04;;;;;;;26.85;14.90;;;;;;;5.02;65.32;101148.28;5099224;28;20032;-72
2022/04/27 03:18:29;;;;;;;26.75;13.52;;;;;;;5.03;65.43;101155.28;5060173;28;20039;-73
2022/04/27 03:20:54;;;;;;;21.92;13.23;;;;;;;5.07;65.18;101158.81;5090854;28;20049;-72
2022/04/27 03:23:20;;;;;;;22.65;13.23;;;;;;;5.04;65.45;101163.97;5092961;28;20131;-71
2022/04/27 03:25:45;;;;;;;28.00;14.13;;;;;;;4.96;65.61;101161.25;5093968;28;20051;-72
2022/04/27 03:28:12;;;;;;;22.30;12.23;;;;;;;4.94;65.43;101162.94;5098515;28;20040;-72
2022/04/27 03:30:37;;;;;;;22.13;12.82;;;;;;;4.99;65.49;101161.31;5092269;28;20062;-71
2022/04/27 03:33:03;;;;;;;26.65;13.02;;;;;;;4.93;65.36;101169.88;5092158;28;20430;-69
2022/04/27 03:35:28;;;;;;;28.40;14.30;;;;;;;4.80;65.91;101170.56;5079071;28;20024;-70
2022/04/27 03:37:55;;;;;;;24.02;12.50;;;;;;;4.78;66.16;101174.88;5096244;28;20391;-69
2022/04/27 03:40:21;;;;;;;51.17;25.17;;;;;;;4.90;66.46;101175.03;5094295;28;20726;-70
2022/04/27 03:42:48;;;;;;;62.03;29.58;;;;;;;5.06;65.88;101189.16;5099526;28;20470;-72
2022/04/27 03:45:13;;;;;;;49.42;26.02;;;;;;;5.04;67.12;101192.63;5094895;28;20110;-70
2022/04/27 03:47:39;;;;;;;43.33;23.58;;;;;;;5.14;66.84;101187.53;5074929;28;20046;-73
2022/04/27 03:50:05;;;;;;;47.78;22.15;;;;;;;5.19;66.75;101196.31;5093902;28;20455;-70
2022/04/27 03:52:31;;;;;;;30.25;17.25;;;;;;;5.37;66.63;101194.78;5074958;28;20140;-70
2022/04/27 03:55:00;;;;;;;31.55;17.92;;;;;;;5.60;66.54;101195.94;5091312;28;20036;-72
2022/04/27 03:57:26;;;;;;;28.80;15.82;;;;;;;5.96;65.55;101199.84;5076737;28;20036;-73
2022/04/27 03:59:51;;;;;;;29.15;15.30;;;;;;;6.24;64.94;101202.72;5094689;28;20040;-71
2022/04/27 04:02:17;;;;;;;22.83;13.90;;;;;;;6.42;64.34;101205.47;5094539;28;20050;-73
2022/04/27 04:04:42;;;;;;;28.63;15.10;;;;;;;6.71;63.74;101204.84;5077499;28;20040;-74
2022/04/27 04:07:08;;;;;;;38.92;18.05;;;;;;;6.77;64.12;101212.72;5105719;28;20046;-74
2022/04/27 04:09:33;;;;;;;37.38;18.33;;;;;;;6.91;64.73;101213.69;5098866;28;20054;-74
2022/04/27 04:11:59;;;;;;;41.42;19.50;;;;;;;6.93;65.67;101227.63;5102004;28;20047;-74
2022/04/27 04:14:24;;;;;;;38.97;19.17;;;;;;;6.97;66.81;101224.19;5094344;28;20112;-73
2022/04/27 04:16:50;;;;;;;40.50;18.88;;;;;;;7.14;66.27;101224.28;5096628;28;20044;-74
2022/04/27 04:19:15;;;;;;;38.22;20.55;;;;;;;7.76;64.06;101226.31;5096282;28;20024;-75
2022/04/27 04:21:41;;;;;;;39.33;20.33;;;;;;;8.01;63.23;101231.59;5096700;28;20404;-74
2022/04/27 04:24:06;;;;;;;41.53;21.02;;;;;;;8.04;63.71;101224.63;5095228;28;20115;-75
2022/04/27 04:29:16;;;;;;;36.92;20.05;;;;;;;7.54;65.55;101238.44;5115974;28;20042;-75
2022/04/27 04:31:41;;;;;;;36.55;20.60;;;;;;;7.97;65.11;101235.97;5098295;28;20036;-75
2022/04/27 04:34:06;;;;;;;40.20;21.15;;;;;;;7.82;65.21;101233.28;5078101;28;20417;-74
2022/04/27 04:36:32;;;;;;;37.38;19.75;;;;;;;8.47;63.30;101236.97;5073966;28;20115;-74
2022/04/27 04:38:58;;;;;;;37.15;20.25;;;;;;;8.71;62.37;101236.09;5080062;28;20047;-74
2022/04/27 04:41:23;;;;;;;32.33;19.20;;;;;;;8.78;63.21;101245.72;5115292;28;20035;-74
2022/04/27 04:43:49;;;;;;;36.83;21.63;;;;;;;8.71;63.60;101250.06;5111484;28;20055;-74
2022/04/27 04:46:14;;;;;;;36.47;21.00;;;;;;;8.29;64.83;101253.47;5089734;28;20036;-74
2022/04/27 04:48:39;;;;;;;41.17;23.48;;;;;;;8.67;63.93;101250.06;5093291;28;20067;-74
2022/04/27 04:51:05;;;;;;;38.47;21.65;;;;;;;8.42;64.84;101251.78;5103956;28;20047;-75
2022/04/27 04:53:30;;;;;;;45.33;24.05;;;;;;;8.73;64.37;101257.91;5080076;28;20036;-75
2022/04/27 04:55:56;;;;;;;37.35;21.65;;;;;;;8.33;65.89;101255.22;5106446;28;20039;-74
2022/04/27 04:58:21;;;;;;;40.33;22.52;;;;;;;8.38;66.24;101264.91;5094943;28;20043;-74
2022/04/27 05:00:48;;;;;;;45.90;25.17;;;;;;;9.01;64.17;101267.50;5059144;28;20570;-77
2022/04/27 05:03:14;;;;;;;41.53;23.92;;;;;;;8.87;64.82;101271.91;5076375;28;20052;-74
2022/04/27 05:05:40;;;;;;;37.58;22.55;;;;;;;8.52;65.98;101264.91;5091606;28;20457;-74
2022/04/27 05:08:07;;;;;;;34.80;20.75;;;;;;;8.46;66.30;101270.16;5095661;28;20067;-74
2022/04/27 05:10:33;;;;;;;39.70;22.67;;;;;;;8.58;66.32;101270.16;5093567;28;20115;-73
2022/04/27 05:12:59;;;;;;;41.45;22.85;;;;;;;8.52;67.71;101272.75;5093045;28;20111;-75
2022/04/27 05:15:24;;;;;;;37.90;21.00;;;;;;;8.82;65.76;101274.53;5056171;28;20032;-72
2022/04/27 05:17:50;;;;;;;33.38;20.40;;;;;;;8.55;67.26;101280.63;5082112;28;20445;-71
2022/04/27 05:20:15;;;;;;;34.72;20.75;;;;;;;8.61;67.74;101280.59;5093222;28;20083;-72
2022/04/27 05:22:41;;;;;;;39.75;22.45;;;;;;;8.11;69.04;101289.22;5092163;28;20063;-72
2022/04/27 05:25:08;;;;;;;37.03;23.60;;;;;;;7.96;70.07;101294.41;5094448;28;20032;-71
2022/04/27 05:27:35;;;;;;;37.45;22.50;;;;;;;8.15;69.37;101296.22;5098508;28;20031;-71
2022/04/27 05:32:46;;;;;;;35.25;21.80;;;;;;;9.00;65.98;101299.84;5096548;28;20118;-69
2022/04/27 05:35:12;;;;;;;36.25;23.13;;;;;;;8.80;67.01;101309.44;5094513;28;20047;-72
2022/04/27 05:37:38;;;;;;;41.22;23.92;;;;;;;8.92;66.47;101311.22;5110077;28;20032;-70
2022/04/27 05:40:05;;;;;;;34.47;22.20;;;;;;;8.54;67.64;101310.31;5095388;28;20054;-71
2022/04/27 05:42:31;;;;;;;34.72;21.27;;;;;;;8.63;67.45;101309.44;5099016;28;20459;-70
2022/04/27 05:44:57;;;;;;;37.70;22.15;;;;;;;8.67;67.78;101315.56;5095557;28;20040;-70
2022/04/27 05:47:23;;;;;;;33.00;20.42;;;;;;;8.88;67.39;101310.31;5094523;28;20032;-71
2022/04/27 05:49:52;;;;;;;32.67;20.67;;;;;;;9.04;65.85;101316.44;5093528;28;20024;-73
2022/04/27 05:52:21;;;;;;;30.70;19.08;;;;;;;9.01;65.99;101319.94;5082529;28;20035;-72
2022/04/27 05:54:48;;;;;;;27.38;18.75;;;;;;;8.88;67.00;101321.69;5091079;28;20479;-71
2022/04/27 05:57:13;;;;;;;26.27;17.92;;;;;;;9.35;65.74;101330.41;5094494;28;20028;-72
2022/04/27 05:59:39;;;;;;;26.83;16.10;;;;;;;8.72;67.74;101329.53;5093822;28;20050;-72
2022/04/27 06:02:04;;;;;;;23.73;15.23;;;;;;;8.46;69.67;101342.56;5093294;28;20040;-71
2022/04/27 06:04:30;;;;;;;23.52;14.23;;;;;;;9.05;66.78;101337.41;5092901;28;20052;-72
2022/04/27 06:06:55;;;;;;;18.95;12.45;;;;;;;8.48;68.79;101339.09;5094578;28;20539;-72
2022/04/27 06:09:21;;;;;;;19.60;14.13;;;;;;;8.45;69.29;101346.94;5069461;28;20403;-71
2022/04/27 06:11:46;;;;;;;18.77;13.88;;;;;;;8.62;69.36;101347.88;5090251;28;20475;-71
2022/04/27 06:14:12;;;;;;;16.15;12.18;;;;;;;9.35;65.81;101346.13;5084117;28;20040;-72
2022/04/27 06:16:37;;;;;;;19.00;12.68;;;;;;;9.64;64.44;101351.31;5081532;28;20036;-71
2022/04/27 06:19:03;;;;;;;15.98;12.35;;;;;;;9.86;63.73;101353.03;5076217;28;20398;-71
2022/04/27 06:21:31;;;;;;;20.02;13.82;;;;;;;9.80;63.90;101358.28;5090793;28;20054;-73
2022/04/27 06:23:58;;;;;;;17.05;11.98;;;;;;;9.75;64.14;101359.19;5090771;28;20105;-72
2022/04/27 06:26:24;;;;;;;15.13;11.73;;;;;;;9.95;63.23;101361.75;5088833;28;20081;-71
2022/04/27 06:28:51;;;;;;;14.00;10.90;;;;;;;10.04;62.64;101370.44;5105587;28;20530;-73
2022/04/27 06:31:17;;;;;;;15.50;10.20;;;;;;;9.93;62.97;101372.22;5106693;28;20039;-72
2022/04/27 06:33:42;;;;;;;14.63;11.05;;;;;;;10.06;62.83;101373.09;5103474;28;20039;-73
2022/04/27 06:36:08;;;;;;;17.70;12.48;;;;;;;10.21;62.47;101374.75;5057697;28;20160;-74
2022/04/27 06:38:33;;;;;;;17.35;12.77;;;;;;;10.20;62.75;101383.53;5088657;28;20028;-75
2022/04/27 06:40:59;;;;;;;13.57;10.40;;;;;;;10.07;62.81;101378.31;5078778;28;20055;-72
2022/04/27 06:43:24;;;;;;;12.95;9.43;;;;;;;10.23;62.31;101375.63;5074809;28;20029;-74
2022/04/27 06:45:49;;;;;;;11.77;8.40;;;;;;;10.66;61.07;101372.81;5092672;28;20027;-72
2022/04/27 06:48:15;;;;;;;10.77;7.78;;;;;;;10.70;60.58;101379.81;5094123;28;20040;-72
2022/04/27 06:50:40;;;;;;;10.75;7.88;;;;;;;10.96;59.74;101379.63;5091152;28;20093;-71
2022/04/27 06:53:06;;;;;;;10.43;7.93;;;;;;;11.03;59.47;101384.81;5090082;28;20043;-72
2022/04/27 06:55:33;;;;;;;10.50;7.85;;;;;;;11.30;58.71;101385.50;5093590;28;20035;-73
2022/04/27 06:57:58;;;;;;;10.23;8.02;;;;;;;11.25;58.78;101395.16;5092335;28;20024;-73
2022/04/27 07:00:25;;;;;;;10.65;8.27;;;;;;;11.09;58.80;101382.16;5058808;28;20043;-73
2022/04/27 07:02:52;;;;;;;11.85;7.93;;;;;;;11.06;58.99;101387.44;5091651;28;20151;-72
2022/04/27 07:05:18;;;;;;;10.30;7.13;;;;;;;11.32;58.28;101386.34;5092605;28;20036;-74
2022/04/27 07:07:44;;;;;;;12.05;7.20;;;;;;;11.54;57.51;101393.16;5093202;28;20069;-74
2022/04/27 07:10:12;;;;;;;10.88;7.50;;;;;;;11.71;57.14;101392.13;5077064;28;20042;-73
2022/04/27 07:12:37;;;;;;;11.85;8.10;;;;;;;11.85;56.78;101395.53;5078898;28;20036;-73
2022/04/27 07:15:04;;;;;;;10.43;6.95;;;;;;;12.03;56.21;101392.66;5097499;28;20089;-74
2022/04/27 07:17:29;;;;;;;9.55;7.70;;;;;;;12.11;56.13;101397.84;5095038;28;20050;-73
2022/04/27 07:19:54;;;;;;;12.25;8.00;;;;;;;12.46;55.30;101396.53;5097321;28;20023;-73
2022/04/27 07:22:20;;;;;;;12.73;8.27;;;;;;;12.52;54.97;101402.59;5078857;28;20210;-72
2022/04/27 07:24:45;;;;;;;12.48;8.60;;;;;;;12.57;54.91;101400.78;5079155;28;20390;-74
2022/04/27 07:27:11;;;;;;;9.68;6.60;;;;;;;12.63;54.74;101407.72;5079457;28;20077;-74
2022/04/27 07:29:37;;;;;;;10.77;7.68;;;;;;;12.61;54.65;101411.25;5078982;28;20060;-73
2022/04/27 07:32:03;;;;;;;9.80;6.38;;;;;;;12.66;54.60;101401.53;5079327;28;20169;-73
2022/04/27 07:34:28;;;;;;;11.57;7.22;;;;;;;12.90;54.22;101408.22;5095948;28;20411;-73
2022/04/27 07:36:56;;;;;;;11.45;6.82;;;;;;;13.19;53.58;101410.41;5096010;28;20038;-74
2022/04/27 07:39:21;;;;;;;12.20;6.72;;;;;;;13.06;53.54;101405.34;5095952;28;20123;-72
2022/04/27 07:41:47;;;;;;;7.13;5.72;;;;;;;13.46;52.89;101417.91;5097161;28;20386;-72
2022/04/27 07:44:12;;;;;;;9.38;6.00;;;;;;;13.54;52.57;101417.78;5079292;28;20043;-72
2022/04/27 07:46:38;;;;;;;8.63;6.82;;;;;;;13.60;52.52;101416.78;5083867;28;20463;-74
2022/04/27 07:49:03;;;;;;;11.85;8.15;;;;;;;13.60;52.10;101430.84;5100800;28;20040;-73
2022/04/27 07:51:29;;;;;;;11.20;7.47;;;;;;;13.59;51.98;101428.25;5095241;28;20036;-73
2022/04/27 07:53:54;;;;;;;10.38;8.43;;;;;;;13.13;52.51;101432.50;5097011;28;20028;-73
2022/04/27 07:56:20;;;;;;;12.48;7.82;;;;;;;13.26;52.61;101426.16;5097525;28;20115;-71
2022/04/27 07:58:45;;;;;;;12.82;8.10;;;;;;;13.37;52.56;101425.13;5100054;28;20063;-74
2022/04/27 08:01:11;;;;;;;9.70;6.97;;;;;;;13.36;52.46;101432.16;5096707;28;20039;-73
2022/04/27 08:03:37;;;;;;;13.10;9.18;;;;;;;13.62;51.84;101430.84;5095971;28;20048;-73
2022/04/27 08:06:04;;;;;;;12.25;7.65;;;;;;;13.77;51.29;101423.53;5096395;28;20048;-73
2022/04/27 08:08:30;;;;;;;10.18;7.15;;;;;;;13.87;51.26;101421.56;5095289;28;20035;-72
2022/04/27 08:10:56;;;;;;;9.23;6.90;;;;;;;13.97;51.10;101428.44;5078688;28;20349;-73
2022/04/27 08:13:21;;;;;;;10.02;7.00;;;;;;;13.86;51.43;101425.13;5094961;28;20046;-74
2022/04/27 08:15:47;;;;;;;10.13;6.70;;;;;;;13.48;52.32;101426.66;5093883;28;20042;-73
2022/04/27 08:18:12;;;;;;;11.05;7.60;;;;;;;13.31;52.51;101426.94;5095869;28;20064;-72
2022/04/27 08:23:29;;;;;;;11.70;7.30;;;;;;;13.12;53.15;101432.50;5095996;28;20035;-72
2022/04/27 08:25:56;;;;;;;10.90;7.45;;;;;;;13.27;52.95;101430.53;5093149;28;20036;-72
2022/04/27 08:28:22;;;;;;;12.05;7.40;;;;;;;13.39;52.57;101429.47;5094332;28;20032;-72
2022/04/27 08:30:51;;;;;;;8.73;6.60;;;;;;;13.52;51.93;101435.41;5094785;28;20035;-72
2022/04/27 08:33:18;;;;;;;10.73;7.85;;;;;;;12.96;53.40;101435.38;5093072;28;20122;-71
2022/04/27 08:35:44;;;;;;;10.57;6.85;;;;;;;13.33;52.51;101434.00;5095190;28;20028;-71
2022/04/27 08:38:10;;;;;;;10.82;7.40;;;;;;;13.30;52.74;101435.78;5093904;28;20043;-71
2022/04/27 08:40:38;;;;;;;10.73;7.20;;;;;;;13.37;52.61;101441.84;5094819;28;20082;-70
2022/04/27 08:43:04;;;;;;;19.83;11.85;;;;;;;13.38;52.44;101437.41;5093366;28;20372;-72
2022/04/27 08:45:30;;;;;;;12.15;7.78;;;;;;;13.24;52.81;101440.25;5076895;28;20036;-72
2022/04/27 08:47:57;;;;;;;9.75;7.13;;;;;;;13.29;52.78;101433.16;5092317;28;20036;-72
2022/04/27 08:50:25;;;;;;;11.55;7.75;;;;;;;13.44;52.26;101440.81;5092282;28;20032;-71
2022/04/27 08:52:51;;;;;;;10.05;7.55;;;;;;;13.59;52.01;101449.38;5092907;28;20127;-72
2022/04/27 08:55:18;;;;;;;10.32;7.70;;;;;;;13.85;51.32;101441.00;5091511;28;20697;-70
2022/04/27 08:57:44;;;;;;;10.30;6.88;;;;;;;13.94;51.16;101446.97;5083073;28;20036;-71
2022/04/27 09:00:13;;;;;;;8.45;6.55;;;;;;;14.02;50.79;101446.84;5092306;28;20040;-71
2022/04/27 09:02:39;;;;;;;9.93;6.70;;;;;;;14.27;50.53;101453.38;5093580;28;20493;-73
2022/04/27 09:05:11;;;;;;;9.63;6.50;;;;;;;14.52;50.17;101443.22;5094170;28;20024;-71
2022/04/27 09:07:42;;;;;;;9.65;6.05;;;;;;;14.70;49.53;101439.31;5094331;28;20032;-71
2022/04/27 09:10:10;;;;;;;9.98;6.72;;;;;;;15.02;49.04;101443.00;5093272;28;20032;-73
2022/04/27 09:12:43;;;;;;;7.60;5.93;;;;;;;15.28;48.48;101437.97;5095229;28;20032;-72
2022/04/27 09:15:08;;;;;;;8.27;6.55;;;;;;;15.27;48.58;101435.34;5094870;28;20035;-72
2022/04/27 09:23:06;;;;;;;11.07;6.18;;;;;;;15.48;48.59;101437.47;5095185;28;20039;-74
2022/04/27 09:25:36;;;;;;;8.73;6.03;;;;;;;15.61;47.96;101437.16;5094386;28;20093;-72
2022/04/27 09:28:03;;;;;;;9.10;6.07;;;;;;;15.54;48.06;101441.72;5095097;28;20070;-72
2022/04/27 09:30:33;;;;;;;9.32;6.35;;;;;;;15.71;46.94;101446.63;5095073;28;20024;-71
2022/04/27 09:32:59;;;;;;;10.60;6.47;;;;;;;15.76;47.25;101450.03;5076149;28;20043;-72
2022/04/27 09:35:35;;;;;;;8.73;5.40;;;;;;;15.83;46.87;101443.66;5093553;28;20391;-73
2022/04/27 09:38:18;;;;;;;8.88;5.93;;;;;;;15.85;46.42;101431.25;5093908;28;20176;-72
2022/04/27 09:40:48;;;;;;;7.03;5.30;;;;;;;15.89;46.61;101443.50;5094673;28;20109;-71
2022/04/27 09:43:15;;;;;;;8.15;5.53;;;;;;;16.15;46.30;101431.31;5076242;28;20039;-72
2022/04/27 09:45:42;;;;;;;7.28;4.30;;;;;;;16.37;45.92;101437.75;5093531;28;20027;-72
2022/04/27 09:48:11;;;;;;;9.05;6.10;;;;;;;16.37;45.64;101428.91;5094532;28;20035;-71
2022/04/27 09:50:46;;;;;;;7.38;5.28;;;;;;;16.33;45.38;101436.09;5076714;28;20499;-71
2022/04/27 09:53:11;;;;;;;7.57;5.38;;;;;;;16.40;45.71;101427.06;5094599;28;20040;-72
2022/04/27 09:55:43;;;;;;;8.23;5.80;;;;;;;16.24;45.76;101429.28;5095099;28;20038;-72
2022/04/27 09:58:13;;;;;;;8.77;5.45;;;;;;;16.08;45.50;101427.97;5096582;28;20043;-72
2022/04/27 10:00:43;;;;;;;8.07;5.30;;;;;;;16.30;45.33;101430.88;5095911;28;20032;-73
2022/04/27 10:03:14;;;;;;;6.75;4.53;;;;;;;16.32;44.52;101426.41;5093057;28;20052;-72
2022/04/27 10:05:40;;;;;;;6.78;4.95;;;;;;;16.32;45.43;101437.03;5092542;28;20024;-71
2022/04/27 10:08:07;;;;;;;8.20;5.10;;;;;;;16.46;45.37;101426.84;5093389;28;20035;-69
2022/04/27 10:10:33;;;;;;;7.80;5.53;;;;;;;16.84;44.48;101430.19;5098244;28;20040;-73
2022/04/27 10:13:01;;;;;;;10.13;4.72;;;;;;;16.86;44.19;101430.13;5093606;28;20109;-74
2022/04/27 10:15:26;;;;;;;8.63;4.35;;;;;;;16.80;43.99;101433.84;5111021;28;20036;-74
2022/04/27 10:17:54;;;;;;;8.18;4.03;;;;;;;16.91;43.68;101420.22;5111295;28;20458;-75
2022/04/27 10:20:35;;;;;;;6.38;4.10;;;;;;;17.11;42.93;101427.56;5101291;28;20032;-75
2022/04/27 10:23:34;;;;;;;6.15;4.18;;;;;;;17.37;41.99;101419.63;5094079;28;20032;-75
2022/04/27 10:26:18;;;;;;;5.68;4.22;;;;;;;17.69;41.37;101425.63;5092980;28;20032;-74
2022/04/27 10:28:46;;;;;;;7.70;4.68;;;;;;;17.80;41.34;101419.97;5093687;28;20067;-74
2022/04/27 10:31:12;;;;;;;7.57;4.93;;;;;;;17.74;41.89;101434.31;5093881;28;20036;-74
2022/04/27 10:33:38;;;;;;;9.77;4.90;;;;;;;17.41;42.05;101437.19;5093563;28;20054;-76
2022/04/27 10:36:39;;;;;;;9.00;4.05;;;;;;;17.30;40.36;101438.47;5091872;28;20046;-76
2022/04/27 10:39:16;;;;;;;5.60;4.13;;;;;;;17.12;40.70;101434.63;5070355;28;20036;-76
2022/04/27 10:41:55;;;;;;;4.90;3.10;;;;;;;17.43;40.64;101440.69;5087187;28;20064;-75
2022/04/27 10:44:21;;;;;;;7.32;5.00;;;;;;;17.27;41.20;101450.03;5092031;28;20028;-75
2022/04/27 10:46:47;;;;;;;5.03;3.97;;;;;;;17.57;41.02;101442.84;5092508;28;20104;-76
2022/04/27 10:49:30;;;;;;;6.72;4.07;;;;;;;18.13;39.25;101439.16;5092595;28;20437;-76
2022/04/27 10:52:00;;;;;;;10.20;3.92;;;;;;;18.16;39.31;101441.72;5092692;28;20039;-75
2022/04/27 10:54:31;;;;;;;6.28;4.00;;;;;;;17.60;40.50;101436.59;5093638;28;20028;-76
2022/04/27 10:57:29;;;;;;;6.43;4.00;;;;;;;17.20;40.55;101443.22;5093304;28;20081;-75
2022/04/27 11:00:03;;;;;;;6.88;3.72;;;;;;;16.85;41.44;101439.88;5069751;28;20426;-75
2022/04/27 11:02:39;;;;;;;6.22;3.92;;;;;;;16.61;41.32;101457.38;5093620;28;20336;-73
2022/04/27 11:05:12;;;;;;;7.32;4.38;;;;;;;16.09;42.04;101448.25;5092389;28;20544;-75
2022/04/27 11:08:14;;;;;;;9.80;3.72;;;;;;;16.37;41.05;101434.22;5092578;28;20040;-76
2022/04/27 11:10:39;;;;;;;6.30;3.72;;;;;;;16.79;41.58;101442.72;5092330;28;20032;-76
2022/04/27 11:13:07;;;;;;;6.50;3.65;;;;;;;16.70;40.91;101441.19;5093567;28;20035;-75
2022/04/27 11:15:33;;;;;;;7.80;3.28;;;;;;;16.94;40.92;101438.72;5092567;28;20035;-75
2022/04/27 11:18:03;;;;;;;4.55;2.10;;;;;;;16.46;41.57;101440.13;5092207;28;20028;-75
2022/04/27 11:20:35;;;;;;;5.13;2.72;;;;;;;16.56;41.75;101439.88;5094403;28;20027;-75
2022/04/27 11:23:07;;;;;;;3.65;2.00;;;;;;;16.80;41.52;101443.59;5092342;28;20028;-75
2022/04/27 11:25:35;;;;;;;4.70;2.40;;;;;;;16.72;41.29;101447.31;5091756;28;20532;-76
2022/04/27 11:28:02;;;;;;;3.50;2.30;;;;;;;16.63;41.09;101452.88;5093106;28;20028;-75
2022/04/27 11:30:30;;;;;;;4.07;1.65;;;;;;;16.53;41.03;101438.16;5075429;28;20032;-76
2022/04/27 11:32:57;;;;;;;3.92;1.92;;;;;;;16.14;41.37;101448.13;5093342;28;20035;-75
2022/04/27 11:35:24;;;;;;;3.65;1.45;;;;;;;15.59;41.91;101458.38;5093030;28;20064;-75
2022/04/27 11:37:54;;;;;;;4.03;2.10;;;;;;;15.72;42.26;101448.38;5091855;28;20124;-75
2022/04/27 11:40:25;;;;;;;3.90;1.85;;;;;;;15.91;41.71;101444.31;5093204;28;20036;-75